createdAt,value
2017-01-07T00:00:23.434Z,26.99
2017-01-07T00:01:23.042Z,26.89
2017-01-07T00:02:23.550Z,26.82
2017-01-07T00:03:23.506Z,26.85
2017-01-07T00:04:23.464Z,26.84
2017-01-07T00:05:23.133Z,26.89
2017-01-07T00:06:23.535Z,26.81
2017-01-07T00:07:23.589Z,26.94
2017-01-07T00:08:23.598Z,26.95
2017-01-07T00:09:23.950Z,26.87
2017-01-07T00:10:23.965Z,26.92
2017-01-07T00:11:23.520Z,26.85
2017-01-07T00:12:23.638Z,26.84
2017-01-07T00:13:24.090Z,26.82
2017-01-07T00:14:24.049Z,26.77
2017-01-07T00:15:23.556Z,26.82
2017-01-07T00:16:24.008Z,26.85
2017-01-07T00:17:23.328Z,26.84
2017-01-07T00:18:23.673Z,26.8
2017-01-07T00:19:23.682Z,26.8
2017-01-07T00:20:23.641Z,26.84
2017-01-07T00:21:23.996Z,26.82
2017-01-07T00:22:23.262Z,26.73
2017-01-07T00:23:23.615Z,26.87
2017-01-07T00:24:24.114Z,26.85
2017-01-07T00:25:23.678Z,26.84
2017-01-07T00:26:24.086Z,26.77
2017-01-07T00:27:23.647Z,26.87
2017-01-07T00:28:24.051Z,26.82
2017-01-07T00:29:24.159Z,26.85
2017-01-07T00:30:24.117Z,26.81
2017-01-07T00:31:23.679Z,26.89
2017-01-07T00:32:23.391Z,26.84
2017-01-07T00:33:23.743Z,26.87
2017-01-07T00:34:23.702Z,26.82
2017-01-07T00:35:23.765Z,26.81
2017-01-07T00:36:23.768Z,26.72
2017-01-07T00:37:24.121Z,26.87
2017-01-07T00:38:23.782Z,26.88
2017-01-07T00:39:23.792Z,26.92
2017-01-07T00:40:23.849Z,26.88
2017-01-07T00:41:24.156Z,26.88
2017-01-07T00:42:24.211Z,26.85
2017-01-07T00:43:24.168Z,26.87
2017-01-07T00:44:23.436Z,26.92
2017-01-07T00:45:23.889Z,26.87
2017-01-07T00:46:24.293Z,26.84
2017-01-07T00:47:23.806Z,26.85
2017-01-07T00:48:23.464Z,26.84
2017-01-07T00:49:23.871Z,26.88
2017-01-07T00:50:23.926Z,26.88
2017-01-07T00:51:23.987Z,26.89
2017-01-07T00:52:24.242Z,26.92
2017-01-07T00:53:23.900Z,26.91
2017-01-07T00:54:23.512Z,26.81
2017-01-07T00:55:23.866Z,26.91
2017-01-07T00:56:24.268Z,26.91
2017-01-07T00:57:23.886Z,26.95
2017-01-07T00:58:23.492Z,26.87
2017-01-07T00:59:23.896Z,26.85
2017-01-07T01:00:23.956Z,26.84
2017-01-07T01:01:23.566Z,26.84
2017-01-07T01:02:23.971Z,26.85
2017-01-07T01:03:23.952Z,26.85
2017-01-07T01:04:23.544Z,26.91
2017-01-07T01:05:24.389Z,26.88
2017-01-07T01:06:23.607Z,26.85
2017-01-07T01:07:23.961Z,26.88
2017-01-07T01:08:23.674Z,26.87
2017-01-07T01:09:24.076Z,26.91
2017-01-07T01:10:24.034Z,26.88
2017-01-07T01:11:23.596Z,26.88
2017-01-07T01:12:23.705Z,26.84
2017-01-07T01:13:24.058Z,26.84
2017-01-07T01:14:24.013Z,26.8
2017-01-07T01:15:24.072Z,26.82
2017-01-07T01:16:24.036Z,26.82
2017-01-07T01:17:24.038Z,26.95
2017-01-07T01:18:24.492Z,26.87
2017-01-07T01:19:24.503Z,26.87
2017-01-07T01:20:24.557Z,26.84
2017-01-07T01:21:24.123Z,26.87
2017-01-07T01:22:24.097Z,26.81
2017-01-07T01:23:24.134Z,26.77
2017-01-07T01:24:24.495Z,26.72
2017-01-07T01:25:24.545Z,26.8
2017-01-07T01:26:23.713Z,26.85
2017-01-07T01:27:24.562Z,26.77
2017-01-07T01:28:24.573Z,26.81
2017-01-07T01:29:23.785Z,26.81
2017-01-07T01:30:24.188Z,26.87
2017-01-07T01:31:24.597Z,26.87
2017-01-07T01:32:24.652Z,26.73
2017-01-07T01:33:24.165Z,26.81
2017-01-07T01:34:24.617Z,26.84
2017-01-07T01:35:24.278Z,26.82
2017-01-07T01:36:23.846Z,26.81
2017-01-07T01:37:24.191Z,26.76
2017-01-07T01:38:24.702Z,26.82
2017-01-07T01:39:23.914Z,26.81
2017-01-07T01:40:23.869Z,26.76
2017-01-07T01:41:23.880Z,26.65
2017-01-07T01:42:24.230Z,26.67
2017-01-07T01:43:24.684Z,26.66
2017-01-07T01:44:24.258Z,26.65
2017-01-07T01:45:24.704Z,26.85
2017-01-07T01:46:23.922Z,26.85
2017-01-07T01:47:23.874Z,26.81
2017-01-07T01:48:24.726Z,26.7
2017-01-07T01:49:24.292Z,26.77
2017-01-07T01:50:24.393Z,26.77
2017-01-07T01:51:24.703Z,26.73
2017-01-07T01:52:24.360Z,26.82
2017-01-07T01:53:23.921Z,26.82
2017-01-07T01:54:24.437Z,26.77
2017-01-07T01:55:23.939Z,26.81
2017-01-07T01:56:24.445Z,26.81
2017-01-07T01:57:24.847Z,26.81
2017-01-07T01:58:24.803Z,26.75
2017-01-07T01:59:24.809Z,26.8
2017-01-07T02:00:24.816Z,26.8
2017-01-07T02:01:24.826Z,26.82
2017-01-07T02:02:24.488Z,26.77
2017-01-07T02:03:24.001Z,26.87
2017-01-07T02:04:24.905Z,26.81
2017-01-07T02:05:24.064Z,26.76
2017-01-07T02:06:24.915Z,26.8
2017-01-07T02:07:24.483Z,26.66
2017-01-07T02:08:24.488Z,26.77
2017-01-07T02:09:24.937Z,26.8
2017-01-07T02:10:24.501Z,26.84
2017-01-07T02:11:24.114Z,26.87
2017-01-07T02:12:24.914Z,26.84
2017-01-07T02:13:24.892Z,26.8
2017-01-07T02:14:24.979Z,26.75
2017-01-07T02:15:24.245Z,26.82
2017-01-07T02:16:24.943Z,26.77
2017-01-07T02:17:24.997Z,26.69
2017-01-07T02:18:24.916Z,26.7
2017-01-07T02:19:24.822Z,26.72
2017-01-07T02:20:24.972Z,26.8
2017-01-07T02:21:25.031Z,26.72
2017-01-07T02:22:24.543Z,26.72
2017-01-07T02:23:24.998Z,26.69
2017-01-07T02:24:24.657Z,26.73
2017-01-07T02:25:24.667Z,26.73
2017-01-07T02:26:25.071Z,26.8
2017-01-07T02:27:25.028Z,26.72
2017-01-07T02:28:24.988Z,26.7
2017-01-07T02:29:24.647Z,26.65
2017-01-07T02:30:24.708Z,26.77
2017-01-07T02:31:24.711Z,26.65
2017-01-07T02:32:25.170Z,26.72
2017-01-07T02:33:24.682Z,26.69
2017-01-07T02:34:25.031Z,26.69
2017-01-07T02:35:25.035Z,26.76
2017-01-07T02:36:25.049Z,26.75
2017-01-07T02:37:24.335Z,26.63
2017-01-07T02:38:25.113Z,26.66
2017-01-07T02:39:25.122Z,26.72
2017-01-07T02:40:24.731Z,26.65
2017-01-07T02:41:24.744Z,26.65
2017-01-07T02:42:24.700Z,26.73
2017-01-07T02:43:25.056Z,26.63
2017-01-07T02:44:24.760Z,26.67
2017-01-07T02:45:24.719Z,26.63
2017-01-07T02:46:24.329Z,26.73
2017-01-07T02:47:24.784Z,26.66
2017-01-07T02:48:24.796Z,26.65
2017-01-07T02:49:25.146Z,26.63
2017-01-07T02:50:25.164Z,26.7
2017-01-07T02:51:24.817Z,26.66
2017-01-07T02:52:25.277Z,26.69
2017-01-07T02:53:24.437Z,26.65
2017-01-07T02:54:24.791Z,26.69
2017-01-07T02:55:24.795Z,26.63
2017-01-07T02:56:25.253Z,26.66
2017-01-07T02:57:24.967Z,26.66
2017-01-07T02:58:25.316Z,26.66
2017-01-07T02:59:24.882Z,26.63
2017-01-07T03:00:24.440Z,26.65
2017-01-07T03:01:24.847Z,26.7
2017-01-07T03:02:24.918Z,26.6
2017-01-07T03:03:24.516Z,26.66
2017-01-07T03:04:25.264Z,26.73
2017-01-07T03:05:25.276Z,26.65
2017-01-07T03:06:24.986Z,26.69
2017-01-07T03:07:24.949Z,26.63
2017-01-07T03:08:24.998Z,26.7
2017-01-07T03:09:24.514Z,26.67
2017-01-07T03:10:25.316Z,26.66
2017-01-07T03:11:24.973Z,26.72
2017-01-07T03:12:24.979Z,26.67
2017-01-07T03:13:25.388Z,26.69
2017-01-07T03:14:25.046Z,26.72
2017-01-07T03:15:25.004Z,26.67
2017-01-07T03:16:24.563Z,26.66
2017-01-07T03:17:25.414Z,26.72
2017-01-07T03:18:25.421Z,26.67
2017-01-07T03:19:24.988Z,26.66
2017-01-07T03:20:25.101Z,26.58
2017-01-07T03:21:25.050Z,26.69
2017-01-07T03:22:25.090Z,26.66
2017-01-07T03:23:25.017Z,26.66
2017-01-07T03:24:25.126Z,26.67
2017-01-07T03:25:25.084Z,26.69
2017-01-07T03:26:24.694Z,26.7
2017-01-07T03:27:24.703Z,26.66
2017-01-07T03:28:25.106Z,26.66
2017-01-07T03:29:25.113Z,26.63
2017-01-07T03:30:25.171Z,26.67
2017-01-07T03:31:24.689Z,26.67
2017-01-07T03:32:24.791Z,26.54
2017-01-07T03:33:25.094Z,26.58
2017-01-07T03:34:25.648Z,26.69
2017-01-07T03:35:24.817Z,26.58
2017-01-07T03:36:25.513Z,26.52
2017-01-07T03:37:24.828Z,26.58
2017-01-07T03:38:25.181Z,26.51
2017-01-07T03:39:25.246Z,26.66
2017-01-07T03:40:25.150Z,26.65
2017-01-07T03:41:24.862Z,26.52
2017-01-07T03:42:25.560Z,26.65
2017-01-07T03:43:24.874Z,26.52
2017-01-07T03:44:25.279Z,26.57
2017-01-07T03:45:25.340Z,26.55
2017-01-07T03:46:25.298Z,26.62
2017-01-07T03:47:25.251Z,26.55
2017-01-07T03:48:25.213Z,26.55
2017-01-07T03:49:25.614Z,26.52
2017-01-07T03:50:25.276Z,26.52
2017-01-07T03:51:25.236Z,26.51
2017-01-07T03:52:25.300Z,26.55
2017-01-07T03:53:25.399Z,26.55
2017-01-07T03:54:25.257Z,26.58
2017-01-07T03:55:25.365Z,26.57
2017-01-07T03:56:25.276Z,26.54
2017-01-07T03:57:25.334Z,26.65
2017-01-07T03:58:25.341Z,26.54
2017-01-07T03:59:25.347Z,26.52
2017-01-07T04:00:25.802Z,26.62
2017-01-07T04:01:25.614Z,26.66
2017-01-07T04:02:25.768Z,26.67
2017-01-07T04:03:25.329Z,26.51
2017-01-07T04:04:25.338Z,26.51
2017-01-07T04:05:24.949Z,26.57
2017-01-07T04:06:25.402Z,26.52
2017-01-07T04:07:25.808Z,26.55
2017-01-07T04:08:25.419Z,26.54
2017-01-07T04:09:25.485Z,26.6
2017-01-07T04:10:25.036Z,26.63
2017-01-07T04:11:25.788Z,26.62
2017-01-07T04:12:25.800Z,26.5
2017-01-07T04:13:25.059Z,26.5
2017-01-07T04:14:25.467Z,26.63
2017-01-07T04:15:25.029Z,26.54
2017-01-07T04:16:25.581Z,26.52
2017-01-07T04:17:25.437Z,26.6
2017-01-07T04:18:25.891Z,26.63
2017-01-07T04:19:25.454Z,26.47
2017-01-07T04:20:25.956Z,26.55
2017-01-07T04:21:25.151Z,26.51
2017-01-07T04:22:25.576Z,26.51
2017-01-07T04:23:25.539Z,26.58
2017-01-07T04:24:25.541Z,26.52
2017-01-07T04:25:25.115Z,26.51
2017-01-07T04:26:25.953Z,26.47
2017-01-07T04:27:25.909Z,26.51
2017-01-07T04:28:25.574Z,26.6
2017-01-07T04:29:25.929Z,26.5
2017-01-07T04:30:25.652Z,26.62
2017-01-07T04:31:25.601Z,26.65
2017-01-07T04:32:25.668Z,26.58
2017-01-07T04:33:25.563Z,26.62
2017-01-07T04:34:25.968Z,26.52
2017-01-07T04:35:26.026Z,26.63
2017-01-07T04:36:25.242Z,26.63
2017-01-07T04:37:25.595Z,26.52
2017-01-07T04:38:25.650Z,26.55
2017-01-07T04:39:25.610Z,26.51
2017-01-07T04:40:25.271Z,26.48
2017-01-07T04:41:25.627Z,26.6
2017-01-07T04:42:26.129Z,26.54
2017-01-07T04:43:25.665Z,26.51
2017-01-07T04:44:25.251Z,26.52
2017-01-07T04:45:26.155Z,26.57
2017-01-07T04:46:25.716Z,26.5
2017-01-07T04:47:26.120Z,26.47
2017-01-07T04:48:26.125Z,26.55
2017-01-07T04:49:26.184Z,26.51
2017-01-07T04:50:26.141Z,26.54
2017-01-07T04:51:25.754Z,26.62
2017-01-07T04:52:25.773Z,26.52
2017-01-07T04:53:25.719Z,26.55
2017-01-07T04:54:25.787Z,26.52
2017-01-07T04:55:25.835Z,26.51
2017-01-07T04:56:25.845Z,26.62
2017-01-07T04:57:25.457Z,26.57
2017-01-07T04:58:25.812Z,26.52
2017-01-07T04:59:26.215Z,26.6
2017-01-07T05:00:26.172Z,26.48
2017-01-07T05:01:25.485Z,26.55
2017-01-07T05:02:26.284Z,26.63
2017-01-07T05:03:26.297Z,26.55
2017-01-07T05:04:26.251Z,26.51
2017-01-07T05:05:25.415Z,26.63
2017-01-07T05:06:26.223Z,26.65
2017-01-07T05:07:26.272Z,26.58
2017-01-07T05:08:25.454Z,26.52
2017-01-07T05:09:25.447Z,26.55
2017-01-07T05:10:25.853Z,26.52
2017-01-07T05:11:26.256Z,26.65
2017-01-07T05:12:25.869Z,26.52
2017-01-07T05:13:26.419Z,26.52
2017-01-07T05:14:25.934Z,26.54
2017-01-07T05:15:25.988Z,26.51
2017-01-07T05:16:26.352Z,26.57
2017-01-07T05:17:25.906Z,26.58
2017-01-07T05:18:25.962Z,26.55
2017-01-07T05:19:25.628Z,26.62
2017-01-07T05:20:25.927Z,26.6
2017-01-07T05:21:26.483Z,26.48
2017-01-07T05:22:25.958Z,26.48
2017-01-07T05:23:26.405Z,26.45
2017-01-07T05:24:26.355Z,26.5
2017-01-07T05:25:26.421Z,26.47
2017-01-07T05:26:25.976Z,26.52
2017-01-07T05:27:26.431Z,26.54
2017-01-07T05:28:25.646Z,26.67
2017-01-07T05:29:25.600Z,26.58
2017-01-07T05:30:26.057Z,26.55
2017-01-07T05:31:26.113Z,26.63
2017-01-07T05:32:25.631Z,26.51
2017-01-07T05:33:26.093Z,26.69
2017-01-07T05:34:25.688Z,26.52
2017-01-07T05:35:26.440Z,26.6
2017-01-07T05:36:25.758Z,26.45
2017-01-07T05:37:26.058Z,26.51
2017-01-07T05:38:25.720Z,26.62
2017-01-07T05:39:26.571Z,26.54
2017-01-07T05:40:26.529Z,26.62
2017-01-07T05:41:26.140Z,26.54
2017-01-07T05:42:26.150Z,26.5
2017-01-07T05:43:26.161Z,26.58
2017-01-07T05:44:26.164Z,26.57
2017-01-07T05:45:26.567Z,26.5
2017-01-07T05:46:26.528Z,26.65
2017-01-07T05:47:26.133Z,26.57
2017-01-07T05:48:26.591Z,26.5
2017-01-07T05:49:26.152Z,26.5
2017-01-07T05:50:25.864Z,26.58
2017-01-07T05:51:25.870Z,26.51
2017-01-07T05:52:26.231Z,26.6
2017-01-07T05:53:26.182Z,26.63
2017-01-07T05:54:26.586Z,26.63
2017-01-07T05:55:25.803Z,26.63
2017-01-07T05:56:26.256Z,26.63
2017-01-07T05:57:25.869Z,26.62
2017-01-07T05:58:26.271Z,26.52
2017-01-07T05:59:26.228Z,26.62
2017-01-07T06:00:26.236Z,26.52
2017-01-07T06:01:26.247Z,26.51
2017-01-07T06:02:26.309Z,26.6
2017-01-07T06:03:26.259Z,26.55
2017-01-07T06:04:26.365Z,26.51
2017-01-07T06:05:26.670Z,26.51
2017-01-07T06:06:26.333Z,26.54
2017-01-07T06:07:26.788Z,26.51
2017-01-07T06:08:26.746Z,26.57
2017-01-07T06:09:26.314Z,26.52
2017-01-07T06:10:26.415Z,26.47
2017-01-07T06:11:26.379Z,26.5
2017-01-07T06:12:26.782Z,26.45
2017-01-07T06:13:25.998Z,26.47
2017-01-07T06:14:25.949Z,26.48
2017-01-07T06:15:26.452Z,26.58
2017-01-07T06:16:26.418Z,26.58
2017-01-07T06:17:26.914Z,26.52
2017-01-07T06:18:26.384Z,26.5
2017-01-07T06:19:26.461Z,26.39
2017-01-07T06:20:26.392Z,26.43
2017-01-07T06:21:26.794Z,26.45
2017-01-07T06:22:26.804Z,26.45
2017-01-07T06:23:26.416Z,26.45
2017-01-07T06:24:26.524Z,26.47
2017-01-07T06:25:26.981Z,26.51
2017-01-07T06:26:26.491Z,26.48
2017-01-07T06:27:26.452Z,26.44
2017-01-07T06:28:26.503Z,26.52
2017-01-07T06:29:26.170Z,26.5
2017-01-07T06:30:26.868Z,26.48
2017-01-07T06:31:26.480Z,26.47
2017-01-07T06:32:26.484Z,26.48
2017-01-07T06:33:26.546Z,26.55
2017-01-07T06:34:26.503Z,26.58
2017-01-07T06:35:26.956Z,26.52
2017-01-07T06:36:26.175Z,26.44
2017-01-07T06:37:26.573Z,26.43
2017-01-07T06:38:26.636Z,26.4
2017-01-07T06:39:26.987Z,26.37
2017-01-07T06:40:26.607Z,26.44
2017-01-07T06:41:26.609Z,26.44
2017-01-07T06:42:26.167Z,26.45
2017-01-07T06:43:26.630Z,26.51
2017-01-07T06:44:27.022Z,26.48
2017-01-07T06:45:26.687Z,26.39
2017-01-07T06:46:27.044Z,26.36
2017-01-07T06:47:26.257Z,26.51
2017-01-07T06:48:26.608Z,26.48
2017-01-07T06:49:27.017Z,26.52
2017-01-07T06:50:26.674Z,26.47
2017-01-07T06:51:26.340Z,26.51
2017-01-07T06:52:26.297Z,26.45
2017-01-07T06:53:27.095Z,26.44
2017-01-07T06:54:27.033Z,26.48
2017-01-07T06:55:26.718Z,26.43
2017-01-07T06:56:26.700Z,26.36
2017-01-07T06:57:27.124Z,26.52
2017-01-07T06:58:26.291Z,26.55
2017-01-07T06:59:26.794Z,26.4
2017-01-07T07:00:27.152Z,26.51
2017-01-07T07:01:27.156Z,26.45
2017-01-07T07:02:27.162Z,26.54
2017-01-07T07:03:26.379Z,26.45
2017-01-07T07:04:26.784Z,26.5
2017-01-07T07:05:26.740Z,26.36
2017-01-07T07:06:26.855Z,26.45
2017-01-07T07:07:26.806Z,26.43
2017-01-07T07:08:26.764Z,26.54
2017-01-07T07:09:27.317Z,26.54
2017-01-07T07:10:26.830Z,26.52
2017-01-07T07:11:27.232Z,26.48
2017-01-07T07:12:26.501Z,26.5
2017-01-07T07:13:26.854Z,26.63
2017-01-07T07:14:26.808Z,26.5
2017-01-07T07:15:27.264Z,26.51
2017-01-07T07:16:26.826Z,26.55
2017-01-07T07:17:27.278Z,26.54
2017-01-07T07:18:26.894Z,26.55
2017-01-07T07:19:26.501Z,26.58
2017-01-07T07:20:26.509Z,26.63
2017-01-07T07:21:26.866Z,26.5
2017-01-07T07:22:26.974Z,26.66
2017-01-07T07:23:26.536Z,26.52
2017-01-07T07:24:26.595Z,26.48
2017-01-07T07:25:27.343Z,26.5
2017-01-07T07:26:27.402Z,26.57
2017-01-07T07:27:27.405Z,26.51
2017-01-07T07:28:27.368Z,26.52
2017-01-07T07:29:26.978Z,26.45
2017-01-07T07:30:27.383Z,26.45
2017-01-07T07:31:26.989Z,26.5
2017-01-07T07:32:26.997Z,26.54
2017-01-07T07:33:27.401Z,26.62
2017-01-07T07:34:27.062Z,26.84
2017-01-07T07:35:27.023Z,26.87
2017-01-07T07:36:27.035Z,27.07
2017-01-07T07:37:27.483Z,27.19
2017-01-07T07:38:27.094Z,27.25
2017-01-07T07:39:27.448Z,27.34
2017-01-07T07:40:27.037Z,27.32
2017-01-07T07:41:27.463Z,27.41
2017-01-07T07:42:27.078Z,27.59
2017-01-07T07:43:27.085Z,27.63
2017-01-07T07:44:27.143Z,27.79
2017-01-07T07:45:27.098Z,27.97
2017-01-07T07:46:27.055Z,27.99
2017-01-07T07:47:26.722Z,28.07
2017-01-07T07:48:27.423Z,28.15
2017-01-07T07:49:26.686Z,28.03
2017-01-07T07:50:26.691Z,28.11
2017-01-07T07:51:26.704Z,28.21
2017-01-07T07:52:27.459Z,28.41
2017-01-07T07:53:27.611Z,28.55
2017-01-07T07:54:27.640Z,28.51
2017-01-07T07:55:27.528Z,28.55
2017-01-07T07:56:27.192Z,28.48
2017-01-07T07:57:27.274Z,28.51
2017-01-07T07:58:27.156Z,28.61
2017-01-07T07:59:27.214Z,28.62
2017-01-07T08:00:27.620Z,28.67
2017-01-07T08:01:26.833Z,28.7
2017-01-07T08:02:26.795Z,28.58
2017-01-07T08:03:27.593Z,28.51
2017-01-07T08:04:27.306Z,28.51
2017-01-07T08:05:26.868Z,28.64
2017-01-07T08:06:26.878Z,28.71
2017-01-07T08:07:27.624Z,28.77
2017-01-07T08:08:27.686Z,28.7
2017-01-07T08:09:27.694Z,28.68
2017-01-07T08:10:27.700Z,28.71
2017-01-07T08:11:26.916Z,28.76
2017-01-07T08:12:26.927Z,28.73
2017-01-07T08:13:27.329Z,28.77
2017-01-07T08:14:27.340Z,28.81
2017-01-07T08:15:27.743Z,28.86
2017-01-07T08:16:27.354Z,28.86
2017-01-07T08:17:27.707Z,28.76
2017-01-07T08:18:27.768Z,28.89
2017-01-07T08:19:26.933Z,28.8
2017-01-07T08:20:27.734Z,28.89
2017-01-07T08:21:27.847Z,28.9
2017-01-07T08:22:27.360Z,28.92
2017-01-07T08:23:27.413Z,29
2017-01-07T08:24:27.896Z,28.89
2017-01-07T08:25:27.033Z,28.86
2017-01-07T08:26:27.834Z,29.04
2017-01-07T08:27:27.859Z,29.06
2017-01-07T08:28:27.456Z,28.93
2017-01-07T08:29:27.868Z,28.88
2017-01-07T08:30:27.872Z,28.85
2017-01-07T08:31:27.480Z,28.78
2017-01-07T08:32:27.438Z,28.85
2017-01-07T08:33:27.896Z,28.9
2017-01-07T08:34:27.561Z,28.95
2017-01-07T08:35:27.465Z,28.89
2017-01-07T08:36:27.869Z,28.71
2017-01-07T08:37:27.187Z,28.61
2017-01-07T08:38:27.099Z,28.73
2017-01-07T08:39:28.001Z,28.96
2017-01-07T08:40:27.955Z,29.08
2017-01-07T08:41:27.569Z,29.02
2017-01-07T08:42:27.528Z,28.92
2017-01-07T08:43:27.632Z,28.8
2017-01-07T08:44:27.592Z,28.73
2017-01-07T08:45:27.153Z,28.83
2017-01-07T08:46:27.164Z,29.11
2017-01-07T08:47:27.615Z,29.04
2017-01-07T08:48:28.023Z,28.88
2017-01-07T08:49:28.027Z,28.85
2017-01-07T08:50:27.692Z,28.78
2017-01-07T08:51:27.698Z,28.86
2017-01-07T08:52:27.710Z,28.88
2017-01-07T08:53:27.671Z,29.02
2017-01-07T08:54:28.024Z,28.96
2017-01-07T08:55:27.238Z,28.76
2017-01-07T08:56:28.040Z,28.67
2017-01-07T08:57:28.147Z,28.61
2017-01-07T08:58:27.316Z,28.83
2017-01-07T08:59:27.377Z,29
2017-01-07T09:00:28.075Z,29.09
2017-01-07T09:01:28.082Z,28.98
2017-01-07T09:02:27.796Z,28.88
2017-01-07T09:03:27.805Z,28.71
2017-01-07T09:04:27.814Z,28.81
2017-01-07T09:05:28.217Z,29.04
2017-01-07T09:06:28.124Z,29.06
2017-01-07T09:07:28.212Z,29
2017-01-07T09:08:27.799Z,28.98
2017-01-07T09:09:27.853Z,28.86
2017-01-07T09:10:27.861Z,28.85
2017-01-07T09:11:27.374Z,28.96
2017-01-07T09:12:27.878Z,29
2017-01-07T09:13:28.235Z,29.15
2017-01-07T09:14:27.799Z,29.16
2017-01-07T09:15:28.199Z,29.04
2017-01-07T09:16:27.915Z,29.04
2017-01-07T09:17:27.923Z,29
2017-01-07T09:18:27.879Z,29.02
2017-01-07T09:19:28.286Z,29.16
2017-01-07T09:20:28.295Z,29.04
2017-01-07T09:21:27.908Z,29.02
2017-01-07T09:22:27.917Z,29.04
2017-01-07T09:23:27.479Z,29.02
2017-01-07T09:24:27.535Z,29.16
2017-01-07T09:25:27.546Z,29.12
2017-01-07T09:26:28.251Z,28.98
2017-01-07T09:27:28.358Z,29.05
2017-01-07T09:28:28.312Z,29.12
2017-01-07T09:29:27.584Z,29.06
2017-01-07T09:30:28.331Z,29.21
2017-01-07T09:31:27.647Z,29.21
2017-01-07T09:32:28.002Z,29.19
2017-01-07T09:33:28.009Z,29.06
2017-01-07T09:34:27.974Z,29.06
2017-01-07T09:35:28.077Z,28.96
2017-01-07T09:36:27.743Z,29
2017-01-07T09:37:28.445Z,29.16
2017-01-07T09:38:28.399Z,29.27
2017-01-07T09:39:27.668Z,29.11
2017-01-07T09:40:27.674Z,28.96
2017-01-07T09:41:28.034Z,28.89
2017-01-07T09:42:28.737Z,29.04
2017-01-07T09:43:28.099Z,29.18
2017-01-07T09:44:28.108Z,29.21
2017-01-07T09:45:28.118Z,29.21
2017-01-07T09:46:27.781Z,29.08
2017-01-07T09:47:28.135Z,29.02
2017-01-07T09:48:28.588Z,28.96
2017-01-07T09:49:28.549Z,28.8
2017-01-07T09:50:28.160Z,28.95
2017-01-07T09:51:28.167Z,29.14
2017-01-07T09:52:28.179Z,29
2017-01-07T09:53:28.530Z,28.93
2017-01-07T09:54:28.196Z,28.95
2017-01-07T09:55:28.603Z,29.02
2017-01-07T09:56:28.659Z,28.95
2017-01-07T09:57:28.171Z,28.95
2017-01-07T09:58:28.576Z,28.86
2017-01-07T09:59:28.290Z,28.81
2017-01-07T10:00:28.248Z,28.86
2017-01-07T10:01:28.258Z,28.95
2017-01-07T10:02:28.271Z,29.12
2017-01-07T10:03:28.272Z,29
2017-01-07T10:04:28.678Z,28.92
2017-01-07T10:05:28.344Z,29.09
2017-01-07T10:06:28.251Z,29
2017-01-07T10:07:27.863Z,29.02
2017-01-07T10:08:27.872Z,29.24
2017-01-07T10:09:28.721Z,29.16
2017-01-07T10:10:28.780Z,29.09
2017-01-07T10:11:27.995Z,28.95
2017-01-07T10:12:28.350Z,29.09
2017-01-07T10:13:28.309Z,29.04
2017-01-07T10:14:28.370Z,29.19
2017-01-07T10:15:28.428Z,29.27
2017-01-07T10:16:27.942Z,29.24
2017-01-07T10:17:28.744Z,29.08
2017-01-07T10:18:28.406Z,29.19
2017-01-07T10:19:28.757Z,28.95
2017-01-07T10:20:28.768Z,29.02
2017-01-07T10:21:28.408Z,29.14
2017-01-07T10:22:28.044Z,29.28
2017-01-07T10:23:28.053Z,29.27
2017-01-07T10:24:28.405Z,29.21
2017-01-07T10:25:28.463Z,29.08
2017-01-07T10:26:28.026Z,29.21
2017-01-07T10:27:28.878Z,29.24
2017-01-07T10:28:28.094Z,29.19
2017-01-07T10:29:28.498Z,29.28
2017-01-07T10:30:28.456Z,29.33
2017-01-07T10:31:28.514Z,29.19
2017-01-07T10:32:28.973Z,29.14
2017-01-07T10:33:28.487Z,29.05
2017-01-07T10:34:28.890Z,29.12
2017-01-07T10:35:28.556Z,29.41
2017-01-07T10:36:29.059Z,29.3
2017-01-07T10:37:28.914Z,29.31
2017-01-07T10:38:28.976Z,29.19
2017-01-07T10:39:28.540Z,29.19
2017-01-07T10:40:28.598Z,29.21
2017-01-07T10:41:28.262Z,29.14
2017-01-07T10:42:28.172Z,29.23
2017-01-07T10:43:28.621Z,29.23
2017-01-07T10:44:28.238Z,29.18
2017-01-07T10:45:28.592Z,29.06
2017-01-07T10:46:29.095Z,29.14
2017-01-07T10:47:28.659Z,29.19
2017-01-07T10:48:29.117Z,29.12
2017-01-07T10:49:28.675Z,28.89
2017-01-07T10:50:28.687Z,28.93
2017-01-07T10:51:28.696Z,28.98
2017-01-07T10:52:28.310Z,29.09
2017-01-07T10:53:28.662Z,29.06
2017-01-07T10:54:28.776Z,29.23
2017-01-07T10:55:29.078Z,29.26
2017-01-07T10:56:28.797Z,29.19
2017-01-07T10:57:28.355Z,29
2017-01-07T10:58:29.105Z,28.98
2017-01-07T10:59:28.766Z,29.08
2017-01-07T11:00:28.779Z,29.02
2017-01-07T11:01:28.542Z,29
2017-01-07T11:02:28.839Z,29.05
2017-01-07T11:03:28.755Z,28.92
2017-01-07T11:04:28.863Z,28.7
2017-01-07T11:05:28.819Z,29
2017-01-07T11:06:28.882Z,28.96
2017-01-07T11:07:28.838Z,28.89
2017-01-07T11:08:28.501Z,28.76
2017-01-07T11:09:29.296Z,28.81
2017-01-07T11:10:29.212Z,28.74
2017-01-07T11:11:28.572Z,28.78
2017-01-07T11:12:28.835Z,28.85
2017-01-07T11:13:28.844Z,28.81
2017-01-07T11:14:29.354Z,28.93
2017-01-07T11:15:28.861Z,28.88
2017-01-07T11:16:28.970Z,28.85
2017-01-07T11:17:28.926Z,28.95
2017-01-07T11:18:28.543Z,29.04
2017-01-07T11:19:28.947Z,29.06
2017-01-07T11:20:28.558Z,29.09
2017-01-07T11:21:29.357Z,29
2017-01-07T11:22:29.021Z,28.89
2017-01-07T11:23:28.980Z,28.81
2017-01-07T11:24:29.038Z,28.83
2017-01-07T11:25:28.549Z,28.86
2017-01-07T11:26:29.352Z,28.9
2017-01-07T11:27:29.019Z,28.88
2017-01-07T11:28:28.581Z,28.93
2017-01-07T11:29:29.032Z,29.05
2017-01-07T11:30:29.092Z,28.95
2017-01-07T11:31:29.103Z,28.78
2017-01-07T11:32:29.106Z,28.85
2017-01-07T11:33:28.621Z,28.85
2017-01-07T11:34:28.684Z,28.78
2017-01-07T11:35:28.940Z,28.89
2017-01-07T11:36:29.544Z,28.93
2017-01-07T11:37:29.447Z,29.04
2017-01-07T11:38:29.562Z,29
2017-01-07T11:39:29.122Z,29.04
2017-01-07T11:40:29.080Z,28.96
2017-01-07T11:41:29.634Z,28.81
2017-01-07T11:42:28.699Z,28.77
2017-01-07T11:43:29.803Z,29
2017-01-07T11:44:29.558Z,29.08
2017-01-07T11:45:28.726Z,29.21
2017-01-07T11:46:29.130Z,29.26
2017-01-07T11:47:29.240Z,29.11
2017-01-07T11:48:28.804Z,28.89
2017-01-07T11:49:29.204Z,28.71
2017-01-07T11:50:28.869Z,28.85
2017-01-07T11:51:29.175Z,29.08
2017-01-07T11:52:29.633Z,29.14
2017-01-07T11:53:29.688Z,28.86
2017-01-07T11:54:29.252Z,28.95
2017-01-07T11:55:29.316Z,28.78
2017-01-07T11:56:29.787Z,28.76
2017-01-07T11:57:29.328Z,28.86
2017-01-07T11:58:29.288Z,28.78
2017-01-07T11:59:29.298Z,28.76
2017-01-07T12:00:29.304Z,28.67
2017-01-07T12:01:29.314Z,28.67
2017-01-07T12:02:29.276Z,28.71
2017-01-07T12:03:29.828Z,28.74
2017-01-07T12:04:29.786Z,28.62
2017-01-07T12:05:29.299Z,28.62
2017-01-07T12:06:29.758Z,28.59
2017-01-07T12:07:29.712Z,28.64
2017-01-07T12:08:29.381Z,28.7
2017-01-07T12:09:29.035Z,28.68
2017-01-07T12:10:29.343Z,28.36
2017-01-07T12:11:29.402Z,28.29
2017-01-07T12:12:29.362Z,28.39
2017-01-07T12:13:29.302Z,28.4
2017-01-07T12:14:29.477Z,28.43
2017-01-07T12:15:29.391Z,28.43
2017-01-07T12:16:29.447Z,28.54
2017-01-07T12:17:29.848Z,28.7
2017-01-07T12:18:29.515Z,28.71
2017-01-07T12:19:29.519Z,28.68
2017-01-07T12:20:29.531Z,28.66
2017-01-07T12:21:29.043Z,28.68
2017-01-07T12:22:29.888Z,28.49
2017-01-07T12:23:29.208Z,28.58
2017-01-07T12:24:29.065Z,28.71
2017-01-07T12:25:29.525Z,28.71
2017-01-07T12:26:29.080Z,28.78
2017-01-07T12:27:29.884Z,28.85
2017-01-07T12:28:29.551Z,29.04
2017-01-07T12:29:29.605Z,29.11
2017-01-07T12:30:29.909Z,28.98
2017-01-07T12:31:29.522Z,29.06
2017-01-07T12:32:44.116Z,29.16
2017-01-07T12:33:29.142Z,29.14
2017-01-07T12:34:29.947Z,29.12
2017-01-07T12:35:29.556Z,29.23
2017-01-07T12:36:30.007Z,29.15
2017-01-07T12:37:29.179Z,29.14
2017-01-07T12:38:30.026Z,29.23
2017-01-07T12:39:30.243Z,29.34
2017-01-07T12:40:29.699Z,29.42
2017-01-07T12:41:29.214Z,29.26
2017-01-07T12:42:29.716Z,29.08
2017-01-07T12:43:29.625Z,29.04
2017-01-07T12:44:29.292Z,29
2017-01-07T12:45:29.745Z,29.05
2017-01-07T12:46:30.097Z,29.19
2017-01-07T12:47:30.058Z,29.27
2017-01-07T12:48:29.768Z,29.28
2017-01-07T12:49:29.733Z,29.11
2017-01-07T12:50:29.841Z,29.09
2017-01-07T12:51:29.423Z,29.12
2017-01-07T12:52:31.581Z,29.11
2017-01-07T12:53:30.160Z,29.06
2017-01-07T12:54:29.436Z,29.21
2017-01-07T12:55:30.179Z,29.26
2017-01-07T12:56:29.792Z,29.24